Time;durP1;ratioP1;P1;durP2;ratioP2;P2;SDS_P1;SDS_P2;PMS_P1;PMS_P2;Temp;Humidity;BMP_temperature;BMP_pressure;BME280_temperature;BME280_humidity;BME280_pressure;Samples;Min_cycle;Max_cycle;Signal;HPM_P1;HPM_P2
2023/04/07 00:01:13;;;;;;;40.03;30.60;;;;;;;6.09;100.00;122000.56;5068824;28;20051;-61
2023/04/07 00:03:40;;;;;;;47.88;34.72;;;;;;;6.09;100.00;121653.06;5070770;28;20051;-61
2023/04/07 00:06:05;;;;;;;40.15;32.72;;;;;;;6.14;100.00;120968.13;5068773;28;20075;-61
2023/04/07 00:08:31;;;;;;;43.58;31.92;;;;;;;6.10;100.00;120612.72;5070027;28;20089;-61
2023/04/07 00:10:57;;;;;;;47.22;35.53;;;;;;;6.08;100.00;120956.16;5068918;28;20045;-62
2023/04/07 00:13:22;;;;;;;45.67;36.40;;;;;;;6.09;100.00;120611.75;5070614;28;20058;-60
2023/04/07 00:15:48;;;;;;;44.05;33.95;;;;;;;5.90;100.00;120575.03;5068305;28;20064;-62
2023/04/07 00:18:13;;;;;;;44.42;32.35;;;;;;;6.12;100.00;119921.91;5070615;28;20414;-60
2023/04/07 00:20:39;;;;;;;48.95;35.67;;;;;;;6.16;100.00;119235.06;5068938;28;20171;-60
2023/04/07 00:23:05;;;;;;;48.00;35.78;;;;;;;6.12;100.00;119574.56;5069613;28;20131;-60
2023/04/07 00:25:31;;;;;;;42.35;31.85;;;;;;;6.16;100.00;119236.06;5069037;28;20423;-61
2023/04/07 00:27:56;;;;;;;46.80;35.95;;;;;;;6.14;100.00;118884.84;5070159;28;20028;-61
2023/04/07 00:30:21;;;;;;;48.28;35.92;;;;;;;6.16;100.00;118887.78;5068645;28;20039;-61
2023/04/07 00:32:47;;;;;;;47.28;35.78;;;;;;;6.15;100.00;118885.81;5070570;28;20021;-61
2023/04/07 00:35:12;;;;;;;48.67;35.22;;;;;;;6.13;100.00;118881.94;5068796;28;20043;-61
2023/04/07 00:37:37;;;;;;;53.97;37.20;;;;;;;6.09;100.00;118526.88;5069785;28;20043;-60
2023/04/07 00:40:03;;;;;;;49.13;36.78;;;;;;;6.13;100.00;118535.63;5068854;28;20053;-61
2023/04/07 00:42:29;;;;;;;53.15;38.08;;;;;;;6.13;100.00;118188.41;5070225;28;20028;-60
2023/04/07 00:44:54;;;;;;;56.30;41.83;;;;;;;6.16;100.00;117847.00;5068288;28;20102;-61
2023/04/07 00:47:19;;;;;;;64.93;40.10;;;;;;;6.17;100.00;117847.97;5070469;28;20029;-60
2023/04/07 00:49:45;;;;;;;56.17;39.35;;;;;;;6.16;100.00;117498.81;5069024;28;20044;-61
2023/04/07 00:52:11;;;;;;;59.85;40.22;;;;;;;6.17;100.00;117501.75;5069425;28;20016;-61
2023/04/07 00:54:38;;;;;;;59.50;40.85;;;;;;;6.17;100.00;117154.59;5068680;28;20052;-61
2023/04/07 00:57:03;;;;;;;59.75;39.15;;;;;;;6.21;100.00;116814.16;5070028;28;20024;-61
2023/04/07 00:59:31;;;;;;;69.03;41.03;;;;;;;6.21;100.00;116467.03;5068371;28;20395;-60
2023/04/07 01:02:09;;;;;;;68.22;38.72;;;;;;;6.20;100.00;116465.09;5070872;28;20025;-60
2023/04/07 01:04:54;;;;;;;60.42;39.17;;;;;;;6.21;100.00;116119.91;5072481;28;20128;-61
2023/04/07 01:07:52;;;;;;;64.43;39.88;;;;;;;6.17;100.00;116459.34;5073381;28;20031;-61
2023/04/07 01:10:26;;;;;;;59.63;39.83;;;;;;;6.20;100.00;116465.09;5071375;28;20071;-61
2023/04/07 01:12:59;;;;;;;65.57;40.65;;;;;;;6.17;100.00;116459.34;5073596;28;20024;-61
2023/04/07 01:15:29;;;;;;;60.08;40.35;;;;;;;6.21;100.00;116118.94;5072257;28;20044;-60
2023/04/07 01:17:59;;;;;;;62.42;38.55;;;;;;;6.15;100.00;116455.53;5073242;28;20191;-59
2023/04/07 01:20:27;;;;;;;67.50;43.83;;;;;;;6.16;100.00;116110.38;5071852;28;20169;-60
2023/04/07 01:22:54;;;;;;;68.65;41.88;;;;;;;6.20;100.00;115770.94;5073732;28;20036;-60
2023/04/07 01:25:38;;;;;;;70.20;40.85;;;;;;;6.15;100.00;115762.38;5072130;28;20488;-60
2023/04/07 01:28:25;;;;;;;72.20;42.22;;;;;;;6.18;100.00;115420.09;5073107;28;20124;-60
2023/04/07 01:30:53;;;;;;;70.85;44.65;;;;;;;6.20;100.00;115076.91;5071836;28;20040;-60
2023/04/07 01:33:19;;;;;;;;;;;;;;;6.21;100.00;114384.84;5073557;28;20021;-60
2023/04/07 01:35:45;;;;;;;67.00;45.00;;;;;;;6.19;100.00;114381.09;5071408;28;20291;-63
2023/04/07 01:38:12;;;;;;;83.78;41.83;;;;;;;6.23;100.00;114041.63;5073211;28;20480;-63
2023/04/07 01:40:39;;;;;;;69.72;42.65;;;;;;;6.21;100.00;114036.97;5071810;28;20048;-63
2023/04/07 01:43:05;;;;;;;97.47;48.10;;;;;;;6.08;100.00;113666.75;5072911;28;20051;-63
2023/04/07 01:45:34;;;;;;;76.70;42.65;;;;;;;6.21;100.00;113344.16;5071983;28;20114;-62
2023/04/07 01:48:00;;;;;;;76.80;43.60;;;;;;;6.23;100.00;113001.00;5073087;28;20028;-62
2023/04/07 01:50:27;;;;;;;78.18;44.65;;;;;;;6.26;100.00;112659.75;5071205;28;20044;-62
2023/04/07 01:52:52;;;;;;;72.50;43.78;;;;;;;6.30;100.00;112320.28;5072916;28;20021;-63
2023/04/07 01:55:18;;;;;;;63.75;42.75;;;;;;;6.24;100.00;112309.25;5071604;28;20048;-62
2023/04/07 01:57:43;;;;;;;70.28;41.72;;;;;;;6.22;100.00;112305.56;5072858;28;20028;-62
2023/04/07 02:00:09;;;;;;;72.85;39.33;;;;;;;6.23;100.00;112307.41;5071386;28;20047;-62
2023/04/07 02:02:40;;;;;;;77.50;43.33;;;;;;;6.18;100.00;112645.88;5073288;28;20092;-62
2023/04/07 02:05:11;;;;;;;76.32;42.40;;;;;;;6.00;100.00;112612.66;5070755;28;20514;-61
2023/04/07 02:07:39;;;;;;;75.97;43.55;;;;;;;6.18;100.00;112298.19;5073214;28;20430;-61
2023/04/07 02:10:07;;;;;;;78.43;43.85;;;;;;;6.21;100.00;111957.00;5071275;28;20127;-60
2023/04/07 02:12:36;;;;;;;83.35;42.40;;;;;;;6.29;100.00;111278.13;5071951;28;20527;-59
2023/04/07 02:15:03;;;;;;;80.05;44.13;;;;;;;6.22;100.00;110918.72;5070139;28;20052;-60
2023/04/07 02:17:32;;;;;;;84.75;42.78;;;;;;;6.22;100.00;111264.47;5072794;28;20095;-60
2023/04/07 02:19:59;;;;;;;81.13;41.08;;;;;;;6.11;100.00;110552.16;5070692;28;20113;-59
2023/04/07 02:22:26;;;;;;;78.03;42.93;;;;;;;6.20;100.00;110568.47;5072991;28;20032;-59
2023/04/07 02:24:51;;;;;;;79.50;45.25;;;;;;;6.17;100.00;110563.03;5071188;28;20048;-59
2023/04/07 02:27:17;;;;;;;77.13;44.08;;;;;;;6.15;100.00;110559.41;5072520;28;20024;-60
2023/04/07 02:29:42;;;;;;;84.47;43.63;;;;;;;6.10;100.00;110897.84;5070963;28;20040;-60
2023/04/07 02:32:07;;;;;;;95.97;52.10;;;;;;;6.11;100.00;110553.06;5072261;28;20483;-60
2023/04/07 02:34:33;;;;;;;91.22;48.35;;;;;;;5.90;100.00;110169.50;5070769;28;20036;-60
2023/04/07 02:36:58;;;;;;;115.28;47.30;;;;;;;6.21;100.00;109529.66;5072378;28;20479;-59
2023/04/07 02:39:23;;;;;;;92.72;46.70;;;;;;;6.19;100.00;109526.97;5071126;28;20380;-60
2023/04/07 02:41:49;;;;;;;103.72;49.92;;;;;;;6.19;100.00;109180.47;5071979;28;20032;-60
2023/04/07 02:44:14;;;;;;;88.03;44.80;;;;;;;6.25;100.00;108498.22;5070763;28;20085;-60
2023/04/07 02:46:40;;;;;;;104.57;49.90;;;;;;;6.23;100.00;108494.66;5072301;28;20025;-60
2023/04/07 02:49:06;;;;;;;101.38;48.65;;;;;;;6.28;100.00;108157.09;5070554;28;20020;-60
2023/04/07 02:51:31;;;;;;;106.70;47.00;;;;;;;6.30;100.00;107814.16;5071772;28;20025;-60
2023/04/07 02:53:56;;;;;;;86.93;48.03;;;;;;;6.31;100.00;107469.50;5071850;28;20395;-60
2023/04/07 02:56:22;;;;;;;93.43;46.85;;;;;;;6.25;100.00;107458.97;5070570;28;20036;-60
2023/04/07 02:58:47;;;;;;;104.32;47.28;;;;;;;6.26;100.00;107460.72;5071460;28;20028;-59
2023/04/07 03:01:12;;;;;;;106.53;49.58;;;;;;;6.23;100.00;107801.81;5070601;28;20037;-60
2023/04/07 03:03:38;;;;;;;99.30;51.47;;;;;;;6.22;100.00;108146.44;5071845;28;20472;-60
2023/04/07 03:06:04;;;;;;;103.28;46.33;;;;;;;6.22;100.00;107800.03;5069657;28;20132;-61
2023/04/07 03:08:29;;;;;;;116.95;49.20;;;;;;;6.22;100.00;107800.03;5071920;28;20395;-60
2023/04/07 03:10:55;;;;;;;110.93;49.28;;;;;;;6.21;100.00;107798.31;5070012;28;20094;-61
2023/04/07 03:13:20;;;;;;;91.50;47.15;;;;;;;6.21;100.00;107798.31;5071227;28;20020;-61
2023/04/07 03:15:46;;;;;;;144.27;54.40;;;;;;;6.21;100.00;107451.94;5070172;28;20123;-60
2023/04/07 03:18:11;;;;;;;102.47;47.58;;;;;;;6.21;100.00;107451.94;5071309;28;20170;-60
2023/04/07 03:20:37;;;;;;;110.30;50.25;;;;;;;6.20;100.00;107450.19;5069378;28;20114;-61
2023/04/07 03:23:02;;;;;;;109.65;47.42;;;;;;;6.22;100.00;107107.34;5071086;28;20016;-61
2023/04/07 03:25:28;;;;;;;95.72;47.30;;;;;;;6.21;100.00;107105.63;5068942;28;20131;-61
2023/04/07 03:27:53;;;;;;;95.55;48.05;;;;;;;6.05;100.00;107078.41;5070497;28;20028;-61
2023/04/07 03:30:19;;;;;;;124.40;52.70;;;;;;;6.14;100.00;106401.69;5069806;28;20427;-59
2023/04/07 03:32:45;;;;;;;121.13;50.40;;;;;;;6.36;100.00;105745.63;5071169;28;20384;-60
2023/04/07 03:35:10;;;;;;;99.47;49.75;;;;;;;6.36;100.00;105745.63;5069158;28;20029;-61
2023/04/07 03:37:36;;;;;;;100.32;48.42;;;;;;;6.33;100.00;105741.31;5070886;28;20496;-59
2023/04/07 03:40:01;;;;;;;96.32;49.90;;;;;;;6.35;100.00;105744.78;5069307;28;20399;-59
2023/04/07 03:42:26;;;;;;;88.82;44.88;;;;;;;6.38;100.00;105401.94;5070185;28;20588;-60
2023/04/07 03:44:52;;;;;;;95.80;49.08;;;;;;;6.35;100.00;105744.78;5069228;28;20629;-59
2023/04/07 03:47:17;;;;;;;105.30;45.78;;;;;;;6.33;100.00;106087.59;5071352;28;20029;-59
2023/04/07 03:49:43;;;;;;;91.93;43.63;;;;;;;6.32;100.00;106085.84;5069163;28;20048;-59
2023/04/07 03:52:08;;;;;;;100.38;48.30;;;;;;;6.33;100.00;106433.91;5070309;28;20078;-59
2023/04/07 03:54:34;;;;;;;106.78;45.97;;;;;;;6.34;100.00;106434.75;5069209;28;20032;-59
2023/04/07 03:57:01;;;;;;;108.47;47.92;;;;;;;6.33;100.00;106433.91;5070269;28;20025;-59
2023/04/07 03:59:26;;;;;;;90.53;43.63;;;;;;;6.32;100.00;106778.50;5068118;28;20399;-59
2023/04/07 04:01:52;;;;;;;104.47;44.97;;;;;;;6.33;100.00;106780.25;5070463;28;20028;-59
2023/04/07 04:04:17;;;;;;;96.10;47.40;;;;;;;6.35;100.00;106783.75;5068997;28;20475;-59
2023/04/07 04:06:42;;;;;;;86.30;43.30;;;;;;;6.22;100.00;107107.34;5070820;28;20502;-59
2023/04/07 04:09:08;;;;;;;94.22;48.10;;;;;;;6.34;100.00;107128.38;5068860;28;20024;-59
2023/04/07 04:11:33;;;;;;;101.22;46.53;;;;;;;6.32;100.00;107471.28;5070137;28;20016;-60
2023/04/07 04:13:58;;;;;;;115.68;50.47;;;;;;;6.33;100.00;107473.03;5068179;28;20379;-58
2023/04/07 04:16:24;;;;;;;123.55;48.38;;;;;;;6.33;100.00;107818.56;5068827;28;20020;-58
2023/04/07 04:18:49;;;;;;;102.20;47.45;;;;;;;6.39;100.00;107481.81;5069201;28;20024;-57
2023/04/07 04:21:15;;;;;;;97.35;47.20;;;;;;;6.31;100.00;108162.38;5050876;28;20056;-57
2023/04/07 04:23:40;;;;;;;105.85;51.88;;;;;;;6.26;100.00;108846.47;5054587;28;20012;-57
2023/04/07 04:26:05;;;;;;;119.28;52.97;;;;;;;6.26;100.00;108846.47;5050735;28;20037;-58
2023/04/07 04:28:31;;;;;;;105.43;48.80;;;;;;;6.25;100.00;109191.19;5050660;28;20354;-58
2023/04/07 04:30:56;;;;;;;118.40;49.78;;;;;;;6.28;100.00;109195.66;5048651;28;20110;-58
2023/04/07 04:33:22;;;;;;;94.32;48.38;;;;;;;6.29;100.00;108851.81;5050295;28;20496;-58
2023/04/07 04:35:47;;;;;;;110.78;49.58;;;;;;;6.28;100.00;109195.66;5048796;28;20037;-58
2023/04/07 04:38:12;;;;;;;111.97;50.50;;;;;;;6.27;100.00;109194.78;5053359;28;20017;-58
2023/04/07 04:40:38;;;;;;;105.22;48.58;;;;;;;6.32;100.00;109202.84;5065091;28;20550;-58
2023/04/07 04:43:06;;;;;;;125.57;50.60;;;;;;;6.26;100.00;109538.63;5073051;28;20020;-58
2023/04/07 04:45:32;;;;;;;125.93;53.95;;;;;;;6.25;100.00;109537.75;5072927;28;20040;-58
2023/04/07 04:47:57;;;;;;;133.18;51.45;;;;;;;6.23;100.00;109534.13;5073518;28;20056;-58
2023/04/07 04:50:23;;;;;;;118.85;53.30;;;;;;;6.22;100.00;109531.47;5054286;28;20151;-58
2023/04/07 04:52:48;;;;;;;149.48;52.10;;;;;;;6.24;100.00;109535.94;5053507;28;20021;-57
2023/04/07 04:55:13;;;;;;;144.95;52.10;;;;;;;6.13;100.00;109169.75;5052076;28;20041;-57
2023/04/07 04:57:39;;;;;;;163.45;54.47;;;;;;;6.29;100.00;108851.81;5059874;28;20120;-57
2023/04/07 05:00:06;;;;;;;141.35;49.05;;;;;;;6.31;100.00;108508.00;5072010;28;20040;-57
2023/04/07 05:02:32;;;;;;;133.73;52.33;;;;;;;6.32;100.00;108509.78;5072584;28;20024;-57
2023/04/07 05:04:58;;;;;;;130.98;49.20;;;;;;;6.29;100.00;108504.44;5070698;28;20048;-57
2023/04/07 05:07:23;;;;;;;133.18;53.25;;;;;;;6.31;100.00;108162.38;5073387;28;20025;-57
2023/04/07 05:09:49;;;;;;;102.20;50.30;;;;;;;6.27;100.00;108154.41;5071151;28;20048;-58
2023/04/07 05:12:14;;;;;;;130.27;47.22;;;;;;;6.17;100.00;107791.22;5072422;28;20040;-58
2023/04/07 05:14:40;;;;;;;101.55;46.95;;;;;;;6.30;100.00;107814.16;5071596;28;20114;-58
2023/04/07 05:17:05;;;;;;;117.18;47.03;;;;;;;6.30;100.00;107814.16;5072627;28;20028;-58
2023/04/07 05:19:31;;;;;;;122.05;48.40;;;;;;;6.32;100.00;107470.41;5069726;28;20088;-59
2023/04/07 05:21:57;;;;;;;107.28;47.35;;;;;;;6.36;100.00;107131.00;5072076;28;20149;-58
2023/04/07 05:24:24;;;;;;;103.22;45.83;;;;;;;6.34;100.00;106782.00;5071385;28;20032;-58
2023/04/07 05:26:50;;;;;;;126.68;51.38;;;;;;;6.38;100.00;106441.75;5071841;28;20430;-58
2023/04/07 05:29:15;;;;;;;101.28;45.65;;;;;;;6.39;100.00;106096.25;5052956;28;20037;-58
2023/04/07 05:31:40;;;;;;;113.82;50.33;;;;;;;6.38;100.00;106094.53;5052729;28;20389;-58
2023/04/07 05:34:06;;;;;;;99.80;43.10;;;;;;;6.39;100.00;105749.94;5049770;28;20024;-59
2023/04/07 05:36:32;;;;;;;92.38;42.13;;;;;;;6.42;100.00;105408.84;5052952;28;20037;-58
2023/04/07 05:38:57;;;;;;;97.65;45.08;;;;;;;6.44;100.00;105413.16;5065899;28;20399;-58
2023/04/07 05:41:23;;;;;;;85.85;43.88;;;;;;;6.42;100.00;105063.41;5069314;28;20040;-58
2023/04/07 05:43:48;;;;;;;96.05;41.97;;;;;;;6.43;100.00;105065.13;5071957;28;20026;-58
2023/04/07 05:46:13;;;;;;;90.18;43.75;;;;;;;6.41;100.00;105061.69;5071604;28;20040;-58
2023/04/07 05:48:39;;;;;;;75.85;40.33;;;;;;;6.41;100.00;105060.84;5070049;28;20051;-57
2023/04/07 05:51:05;;;;;;;88.90;46.08;;;;;;;6.44;100.00;104720.59;5064389;28;20037;-57
2023/04/07 05:53:30;;;;;;;82.22;41.47;;;;;;;6.51;100.00;104385.47;5072312;28;20029;-59
2023/04/07 05:55:55;;;;;;;75.80;38.92;;;;;;;6.55;100.00;104046.00;5069736;28;20048;-59
2023/04/07 05:58:21;;;;;;;80.45;42.08;;;;;;;6.57;100.00;103703.19;5072408;28;20028;-59
2023/04/07 06:00:46;;;;;;;68.88;39.95;;;;;;;6.54;100.00;104043.47;5070742;28;20067;-59
2023/04/07 06:03:12;;;;;;;68.47;39.60;;;;;;;6.51;100.00;104385.47;5071165;28;20020;-59
2023/04/07 06:05:42;;;;;;;72.15;39.88;;;;;;;6.53;100.00;104042.59;5069934;28;20641;-59
2023/04/07 06:08:07;;;;;;;66.47;36.15;;;;;;;6.53;100.00;104388.00;5062424;28;20025;-59
2023/04/07 06:10:32;;;;;;;69.90;35.60;;;;;;;6.54;100.00;104390.56;5064907;28;20109;-59
2023/04/07 06:12:58;;;;;;;60.25;36.25;;;;;;;6.56;100.00;104393.13;5070277;28;20047;-59
2023/04/07 06:15:23;;;;;;;70.95;34.85;;;;;;;6.55;100.00;104738.56;5070890;28;20032;-59
2023/04/07 06:17:48;;;;;;;62.25;34.67;;;;;;;6.60;100.00;104400.78;5071199;28;20024;-59
2023/04/07 06:20:14;;;;;;;57.88;33.03;;;;;;;6.45;100.00;104375.19;5065556;28;20053;-59
2023/04/07 06:22:39;;;;;;;54.78;33.08;;;;;;;6.61;100.00;104748.84;5070504;28;20046;-59
2023/04/07 06:25:05;;;;;;;50.20;30.33;;;;;;;6.52;100.00;104733.41;5070082;28;20040;-59
2023/04/07 06:27:32;;;;;;;53.85;31.02;;;;;;;6.59;100.00;105091.75;5071855;28;20029;-59
2023/04/07 06:29:57;;;;;;;55.05;35.00;;;;;;;6.60;100.00;105093.47;5070781;28;20526;-58
2023/04/07 06:32:22;;;;;;;46.72;31.52;;;;;;;6.62;100.00;104750.56;5071157;28;20029;-59
2023/04/07 06:34:48;;;;;;;51.75;30.33;;;;;;;6.64;100.00;105100.38;5070112;28;20029;-58
2023/04/07 06:37:15;;;;;;;43.90;27.90;;;;;;;6.65;100.00;105102.09;5072290;28;20020;-59
2023/04/07 06:39:41;;;;;;;42.92;26.95;;;;;;;6.65;100.00;105102.09;5070266;28;20036;-59
2023/04/07 06:42:06;;;;;;;39.92;26.98;;;;;;;6.68;100.00;105106.38;5071811;28;20400;-59
2023/04/07 06:44:31;;;;;;;40.65;27.00;;;;;;;6.69;100.00;105107.22;5069207;28;20088;-59
2023/04/07 06:46:57;;;;;;;34.97;26.98;;;;;;;6.73;100.00;104767.69;5070330;28;20024;-59
2023/04/07 06:49:22;;;;;;;43.40;27.27;;;;;;;6.80;100.00;104433.25;5070059;28;20036;-59
2023/04/07 06:51:47;;;;;;;40.55;27.15;;;;;;;6.72;100.00;104073.22;5070695;28;20021;-59
2023/04/07 06:54:13;;;;;;;39.03;26.08;;;;;;;6.86;100.00;104097.03;5069249;28;20084;-59
2023/04/07 06:56:40;;;;;;;36.13;25.70;;;;;;;6.75;100.00;103732.84;5071584;28;20521;-59
2023/04/07 06:59:05;;;;;;;40.92;27.92;;;;;;;6.73;100.00;104074.94;5066855;28;20020;-59
2023/04/07 07:01:31;;;;;;;33.05;24.02;;;;;;;6.92;100.00;103759.97;5069315;28;20024;-59
2023/04/07 07:03:56;;;;;;;35.05;25.00;;;;;;;6.92;100.00;103760.78;5071531;28;20025;-58
2023/04/07 07:06:21;;;;;;;37.05;26.02;;;;;;;6.95;100.00;103765.88;5070108;28;20036;-58
2023/04/07 07:08:47;;;;;;;36.42;23.65;;;;;;;6.93;100.00;103416.06;5069285;28;20416;-59
2023/04/07 07:11:12;;;;;;;29.85;23.45;;;;;;;7.09;100.00;103442.25;5069204;28;20036;-59
2023/04/07 07:13:37;;;;;;;33.78;26.40;;;;;;;7.16;100.00;103799.78;5071033;28;20024;-58
2023/04/07 07:16:03;;;;;;;36.35;25.85;;;;;;;7.01;100.00;104120.84;5068149;28;20028;-58
2023/04/07 07:18:28;;;;;;;33.67;26.15;;;;;;;7.32;100.00;103825.22;5070946;28;20382;-58
2023/04/07 07:20:53;;;;;;;34.97;26.02;;;;;;;7.35;100.00;104523.69;5068847;28;20048;-58
2023/04/07 07:23:19;;;;;;;32.15;24.77;;;;;;;7.37;100.00;104873.88;5070909;28;20090;-58
2023/04/07 07:25:44;;;;;;;28.95;24.00;;;;;;;7.23;100.00;105545.06;5069747;28;20036;-58
2023/04/07 07:28:09;;;;;;;28.10;22.75;;;;;;;7.44;100.00;105579.53;5053676;28;20637;-58
2023/04/07 07:30:35;;;;;;;33.60;25.95;;;;;;;7.50;100.00;105589.88;5049452;28;20399;-58
2023/04/07 07:33:00;;;;;;;30.30;23.83;;;;;;;7.48;100.00;105933.38;5050959;28;20361;-58
2023/04/07 07:35:26;;;;;;;26.67;22.52;;;;;;;7.45;100.00;105929.00;5049622;28;20052;-59
2023/04/07 07:37:51;;;;;;;29.08;22.80;;;;;;;7.56;100.00;106987.38;5050060;28;20025;-58
2023/04/07 07:40:17;;;;;;;33.28;25.05;;;;;;;7.66;100.00;107698.25;5049410;28;20041;-59
2023/04/07 07:42:42;;;;;;;29.08;22.67;;;;;;;7.67;100.00;108741.69;5050978;28;20029;-59
2023/04/07 07:45:08;;;;;;;30.60;23.92;;;;;;;7.71;100.00;109443.44;5048990;28;20037;-58
2023/04/07 07:47:36;;;;;;;31.30;23.88;;;;;;;7.73;100.00;111184.19;5050668;28;20384;-58
2023/04/07 07:50:02;;;;;;;26.63;23.73;;;;;;;7.62;100.00;114294.28;5065521;28;20052;-58
2023/04/07 07:52:27;;;;;;;29.95;22.10;;;;;;;7.72;100.00;115702.41;5070785;28;20111;-58
2023/04/07 07:54:53;;;;;;;29.17;23.92;;;;;;;7.68;100.00;118826.84;5068824;28;20044;-57
2023/04/07 07:57:18;;;;;;;26.95;23.23;;;;;;;7.57;100.00;123334.78;5070668;28;20024;-58
2023/04/07 07:59:44;;;;;;;29.85;24.02;;;;;;;7.61;100.00;127874.59;5069198;28;20048;-58
2023/04/07 08:02:09;;;;;;;27.90;21.30;;;;;;;7.49;100.00;132387.25;5070126;28;20025;-58
2023/04/07 08:04:36;;;;;;;30.83;24.38;;;;;;;7.60;100.00;136603.19;5069206;28;20043;-58
2023/04/07 08:07:02;;;;;;;32.13;23.02;;;;;;;7.62;100.00;140106.47;5070537;28;20026;-58
2023/04/07 08:09:28;;;;;;;29.33;22.45;;;;;;;7.69;100.00;142571.81;5068864;28;20040;-58
2023/04/07 08:11:53;;;;;;;29.90;22.98;;;;;;;7.73;100.00;145382.41;5069817;28;20017;-58
2023/04/07 08:14:19;;;;;;;29.73;23.02;;;;;;;7.76;100.00;147843.38;5068921;28;20028;-58
2023/04/07 08:16:45;;;;;;;28.80;23.27;;;;;;;7.74;100.00;150293.59;5070528;28;20357;-58
2023/04/07 08:19:10;;;;;;;28.48;24.95;;;;;;;7.72;100.00;152394.06;5068761;28;20442;-58
2023/04/07 08:21:36;;;;;;;34.65;26.10;;;;;;;7.70;100.00;154846.72;5070648;28;20053;-58
2023/04/07 08:24:01;;;;;;;31.85;24.65;;;;;;;7.69;100.00;157249.56;5068317;28;20365;-58
2023/04/07 08:26:27;;;;;;;33.40;23.33;;;;;;;7.77;100.00;158438.91;5070152;28;20025;-58
2023/04/07 08:28:52;;;;;;;30.25;23.30;;;;;;;7.75;100.00;160689.00;5069981;28;20016;-57
2023/04/07 08:31:17;;;;;;;32.35;23.73;;;;;;;7.69;100.00;162574.72;5068407;28;20048;-58
2023/04/07 08:33:43;;;;;;;31.08;22.42;;;;;;;7.52;100.00;162531.59;5070449;28;20021;-58
2023/04/07 08:36:08;;;;;;;27.75;23.55;;;;;;;7.69;100.00;162574.72;5068657;28;20033;-58
2023/04/07 08:38:33;;;;;;;32.55;24.10;;;;;;;7.74;100.00;162588.19;5070153;28;20024;-58
2023/04/07 08:41:32;;;;;;;34.97;24.30;;;;;;;7.72;100.00;162582.78;5068395;28;20048;-58
2023/04/07 08:43:59;;;;;;;35.60;22.25;;;;;;;7.78;100.00;162600.31;5069406;28;20032;-57
2023/04/07 08:46:26;;;;;;;24.30;19.30;;;;;;;7.81;100.00;162607.06;5068318;28;20048;-61
2023/04/07 08:48:52;;;;;;;27.92;21.17;;;;;;;7.86;100.00;162620.50;5069580;28;20435;-58
2023/04/07 08:51:27;;;;;;;27.20;21.95;;;;;;;8.08;100.00;162677.09;5068169;28;20048;-58
2023/04/07 08:53:55;;;;;;;24.92;20.92;;;;;;;8.21;100.00;162712.19;5069775;28;20032;-58
2023/04/07 08:56:21;;;;;;;24.45;17.63;;;;;;;8.31;100.00;162736.41;5068562;28;20499;-58
2023/04/07 08:58:48;;;;;;;21.73;17.38;;;;;;;8.31;100.00;162736.41;5070086;28;20455;-58
2023/04/07 09:01:15;;;;;;;17.30;14.57;;;;;;;8.53;100.00;162794.44;5068260;28;20036;-58
2023/04/07 09:03:43;;;;;;;17.45;14.60;;;;;;;8.66;100.00;162828.16;5070591;28;20036;-58
2023/04/07 09:06:10;;;;;;;20.63;17.85;;;;;;;8.68;100.00;162833.50;5068266;28;20052;-58
2023/04/07 09:08:35;;;;;;;23.45;15.68;;;;;;;8.78;100.00;162860.50;5069755;28;20055;-58
2023/04/07 09:11:01;;;;;;;15.98;12.40;;;;;;;8.81;100.00;162868.59;5068329;28;20060;-58
2023/04/07 09:13:26;;;;;;;15.38;13.73;;;;;;;9.04;100.00;162927.94;5070046;28;20033;-58
2023/04/07 09:15:52;;;;;;;14.70;12.93;;;;;;;9.12;100.00;162949.47;5067770;28;20037;-58
2023/04/07 09:18:18;;;;;;;11.88;10.43;;;;;;;9.26;100.00;162984.56;5069985;28;20047;-58
2023/04/07 09:21:00;;;;;;;13.48;11.50;;;;;;;9.29;100.00;162994.00;5068247;28;20600;-58
2023/04/07 09:23:33;;;;;;;12.48;11.15;;;;;;;9.12;100.00;162949.47;5071349;28;20050;-58
2023/04/07 09:26:17;;;;;;;12.02;10.68;;;;;;;8.85;100.00;162878.03;5068496;28;20597;-58
2023/04/07 09:28:46;;;;;;;14.35;10.38;;;;;;;9.20;100.00;162971.03;5052899;28;20033;-58
2023/04/07 09:31:12;;;;;;;10.13;8.43;;;;;;;9.41;100.00;163025.03;5051652;28;20518;-58
2023/04/07 09:33:37;;;;;;;9.43;8.63;;;;;;;9.45;100.00;163034.47;5053604;28;20037;-58
2023/04/07 09:36:07;;;;;;;10.65;9.13;;;;;;;9.45;100.00;163035.81;5051878;28;20040;-58
2023/04/07 09:38:35;;;;;;;10.20;7.22;;;;;;;9.17;100.00;162962.97;5053139;28;20632;-58
2023/04/07 09:41:16;;;;;;;8.88;7.80;;;;;;;9.18;100.00;162964.31;5051811;28;20040;-58
2023/04/07 09:43:44;;;;;;;10.88;9.18;;;;;;;9.20;100.00;162971.03;5052970;28;20039;-58
2023/04/07 09:46:10;;;;;;;9.82;8.93;;;;;;;9.11;100.00;162945.44;5051533;28;20123;-58
2023/04/07 09:48:35;;;;;;;10.63;9.30;;;;;;;9.07;100.00;162936.00;5053327;28;20108;-58
2023/04/07 09:51:06;;;;;;;10.32;9.35;;;;;;;9.38;100.00;163015.59;5051232;28;20408;-58
2023/04/07 09:53:43;;;;;;;11.80;10.57;;;;;;;9.36;100.00;163011.50;5053231;28;20021;-58
2023/04/07 09:56:12;;;;;;;10.68;9.75;;;;;;;9.57;100.00;163065.50;5051364;28;20045;-58
2023/04/07 09:58:39;;;;;;;9.80;8.98;;;;;;;9.64;100.00;163085.72;5052742;28;20503;-58
2023/04/07 10:01:07;;;;;;;11.00;9.98;;;;;;;9.78;100.00;163122.16;5051463;28;20740;-58
2023/04/07 10:03:33;;;;;;;10.35;8.70;;;;;;;9.61;100.00;163076.28;5058086;28;20439;-58
2023/04/07 10:05:59;;;;;;;13.80;9.65;;;;;;;9.35;100.00;163008.81;5068535;28;20055;-58
2023/04/07 10:08:26;;;;;;;12.57;10.43;;;;;;;9.30;100.00;162995.34;5071715;28;20028;-58
2023/04/07 10:10:52;;;;;;;13.18;11.63;;;;;;;9.15;100.00;162957.56;5070581;28;20516;-58
2023/04/07 10:13:18;;;;;;;12.73;11.45;;;;;;;9.08;100.00;162937.38;5071685;28;20682;-58
2023/04/07 10:15:43;;;;;;;14.23;12.75;;;;;;;9.15;100.00;162957.56;5071429;28;20119;-58
2023/04/07 10:18:09;;;;;;;13.38;11.55;;;;;;;9.11;100.00;162946.81;5072477;28;20024;-58
2023/04/07 10:20:38;;;;;;;15.13;13.63;;;;;;;9.21;100.00;162973.75;5070951;28;20106;-58
2023/04/07 10:23:12;;;;;;;15.55;13.98;;;;;;;9.52;100.00;163054.69;5072692;28;20108;-58
2023/04/07 10:25:39;;;;;;;14.73;13.23;;;;;;;9.68;100.00;163095.16;5071400;28;20504;-58
2023/04/07 10:28:08;;;;;;;16.08;12.05;;;;;;;9.93;100.00;163159.94;5071997;28;20025;-58
2023/04/07 10:30:35;;;;;;;11.77;10.05;;;;;;;9.86;100.00;163141.03;5071421;28;20033;-58
2023/04/07 10:33:01;;;;;;;11.45;10.32;;;;;;;9.96;100.00;163169.38;5072842;28;20109;-58
2023/04/07 10:35:27;;;;;;;10.77;9.68;;;;;;;9.91;100.00;163154.50;5070270;28;20037;-58
2023/04/07 10:38:12;;;;;;;11.20;9.48;;;;;;;9.88;100.00;163146.41;5072239;28;20020;-58
2023/04/07 10:40:38;;;;;;;11.68;10.57;;;;;;;9.97;100.00;163170.69;5069488;28;20630;-58
2023/04/07 10:43:10;;;;;;;12.75;10.68;;;;;;;9.78;100.00;163120.78;5070622;28;20113;-58
2023/04/07 10:45:47;;;;;;;10.07;8.95;;;;;;;9.84;100.00;163138.34;5070709;28;20040;-58
2023/04/07 10:48:16;;;;;;;10.88;9.77;;;;;;;9.77;100.00;163119.44;5071923;28;20095;-58
2023/04/07 10:50:41;;;;;;;;;;;;;;;9.77;100.00;163119.44;5070236;28;20047;-58
2023/04/07 10:53:24;;;;;;;13.13;11.73;;;;;;;9.84;100.00;163138.34;5071445;28;19991;-58
2023/04/07 10:55:55;;;;;;;12.02;9.88;;;;;;;9.79;100.00;163124.81;5053546;28;20123;-58
2023/04/07 10:58:28;;;;;;;10.45;8.57;;;;;;;9.64;100.00;163084.38;5071388;28;20127;-58
2023/04/07 11:00:56;;;;;;;10.05;9.15;;;;;;;9.61;100.00;163077.59;5070411;28;20048;-58
2023/04/07 11:03:22;;;;;;;13.52;9.45;;;;;;;9.47;100.00;163039.81;5072212;28;20087;-58
2023/04/07 11:05:48;;;;;;;9.18;8.35;;;;;;;9.58;100.00;163068.16;5069603;28;20037;-57
2023/04/07 11:08:13;;;;;;;10.43;9.35;;;;;;;9.58;100.00;163068.16;5072043;28;20027;-57